createdAt,value
2023-04-16T00:01:09.389Z,99.99
2023-04-16T00:03:37.538Z,99.99
2023-04-16T00:06:05.975Z,99.99
2023-04-16T00:08:35.701Z,99.99
2023-04-16T00:11:05.480Z,99.99
2023-04-16T00:13:33.586Z,99.99
2023-04-16T00:16:01.706Z,99.99
2023-04-16T00:18:29.597Z,99.99
2023-04-16T00:20:57.520Z,99.99
2023-04-16T00:23:25.417Z,99.99
2023-04-16T00:25:53.919Z,99.99
2023-04-16T00:28:21.932Z,99.99
2023-04-16T00:30:49.903Z,99.99
2023-04-16T00:33:18.213Z,99.99
2023-04-16T00:35:47.284Z,99.99
2023-04-16T00:38:15.979Z,99.99
2023-04-16T00:40:44.070Z,99.99
2023-04-16T00:43:12.073Z,99.99
2023-04-16T00:45:40.240Z,99.99
2023-04-16T00:48:08.294Z,99.99
2023-04-16T00:50:36.288Z,99.99
2023-04-16T00:53:04.742Z,99.99
2023-04-16T00:55:32.676Z,99.99
2023-04-16T00:58:01.092Z,99.99
2023-04-16T01:00:29.263Z,99.99
2023-04-16T01:03:07.332Z,99.99
2023-04-16T01:05:37.091Z,99.99
2023-04-16T01:08:05.143Z,99.99
2023-04-16T01:10:33.201Z,99.99
2023-04-16T01:13:01.219Z,99.99
2023-04-16T01:15:29.510Z,99.99
2023-04-16T01:17:57.543Z,99.99
2023-04-16T01:20:25.592Z,99.99
2023-04-16T01:22:53.588Z,99.99
2023-04-16T01:25:21.812Z,99.99
2023-04-16T01:27:54.918Z,99.99
2023-04-16T01:30:23.107Z,99.99
2023-04-16T01:33:03.053Z,99.99
2023-04-16T01:35:31.206Z,99.99
2023-04-16T01:38:02.102Z,99.99
2023-04-16T01:40:30.679Z,99.99
2023-04-16T01:42:58.650Z,99.99
2023-04-16T01:45:26.642Z,99.99
2023-04-16T01:47:54.586Z,99.99
2023-04-16T01:50:23.414Z,99.99
2023-04-16T01:52:51.315Z,99.99
2023-04-16T01:55:19.291Z,99.99
2023-04-16T01:57:47.476Z,99.99
2023-04-16T02:00:15.927Z,99.99
2023-04-16T02:02:47.416Z,99.99
2023-04-16T02:05:21.596Z,99.99
2023-04-16T02:07:49.661Z,99.99
2023-04-16T02:10:17.742Z,99.99
2023-04-16T02:12:46.683Z,99.99
2023-04-16T02:15:16.354Z,99.99
2023-04-16T02:17:46.450Z,99.99
2023-04-16T02:20:14.572Z,99.99
2023-04-16T02:22:49.721Z,99.99
2023-04-16T02:25:20.623Z,99.99
2023-04-16T02:27:48.829Z,99.99
2023-04-16T02:30:27.289Z,99.99
2023-04-16T02:32:55.904Z,99.99
2023-04-16T02:35:24.740Z,99.99
2023-04-16T02:37:52.968Z,99.99
2023-04-16T02:40:21.086Z,99.99
2023-04-16T02:42:49.965Z,99.99
2023-04-16T02:45:17.919Z,99.99
2023-04-16T02:47:47.474Z,99.99
2023-04-16T02:50:15.668Z,99.99
2023-04-16T02:52:43.602Z,99.99
2023-04-16T02:55:12.037Z,99.99
2023-04-16T02:57:39.940Z,99.99
2023-04-16T03:00:08.723Z,99.99
2023-04-16T03:02:36.864Z,99.99
2023-04-16T03:05:05.147Z,99.99
2023-04-16T03:07:33.079Z,99.99
2023-04-16T03:10:01.248Z,99.99
2023-04-16T03:12:29.053Z,99.99
2023-04-16T03:14:56.989Z,99.99
2023-04-16T03:17:24.962Z,99.99
2023-04-16T03:19:52.961Z,99.99
2023-04-16T03:22:23.513Z,99.99
2023-04-16T03:24:51.583Z,99.99
2023-04-16T03:27:19.456Z,99.99
2023-04-16T03:29:47.838Z,99.99
2023-04-16T03:32:15.871Z,99.99
2023-04-16T03:34:43.818Z,99.99
2023-04-16T03:37:14.806Z,99.99
2023-04-16T03:39:42.686Z,99.99
2023-04-16T03:42:12.187Z,99.99
2023-04-16T03:44:41.344Z,99.99
2023-04-16T03:47:10.500Z,99.99
2023-04-16T03:49:39.084Z,99.99
2023-04-16T03:52:07.656Z,99.99
2023-04-16T03:54:35.715Z,99.99
2023-04-16T03:57:15.350Z,99.99
2023-04-16T03:59:43.661Z,99.99
2023-04-16T04:02:11.684Z,99.99
2023-04-16T04:04:39.649Z,99.99
2023-04-16T04:07:07.658Z,99.99
2023-04-16T04:09:35.766Z,99.99
2023-04-16T04:12:04.670Z,99.99
2023-04-16T04:14:39.690Z,99.99
2023-04-16T04:17:09.467Z,99.99
2023-04-16T04:19:40.286Z,99.99
2023-04-16T04:22:11.025Z,99.99
2023-04-16T04:24:39.512Z,99.99
2023-04-16T04:27:07.553Z,99.99
2023-04-16T04:29:35.566Z,99.99
2023-04-16T04:32:03.883Z,99.99
2023-04-16T04:34:32.087Z,99.99
2023-04-16T04:37:00.723Z,99.99
2023-04-16T04:39:29.551Z,99.99
2023-04-16T04:41:58.335Z,99.99
2023-04-16T04:44:26.545Z,99.99
2023-04-16T04:46:54.688Z,99.99
2023-04-16T04:49:25.091Z,99.99
2023-04-16T04:52:13.844Z,99.99
2023-04-16T04:54:42.219Z,99.99
2023-04-16T04:57:10.128Z,99.99
2023-04-16T04:59:38.380Z,99.99
2023-04-16T05:02:06.462Z,99.99
2023-04-16T05:04:34.428Z,99.99
2023-04-16T05:07:02.801Z,99.99
2023-04-16T05:09:30.964Z,99.99
2023-04-16T05:11:59.009Z,99.99
2023-04-16T05:14:29.913Z,99.99
2023-04-16T05:16:57.974Z,99.99
2023-04-16T05:19:26.182Z,99.99
2023-04-16T05:21:55.204Z,99.99
2023-04-16T05:24:23.420Z,99.99
2023-04-16T05:26:51.377Z,99.99
2023-04-16T05:29:19.481Z,99.99
2023-04-16T05:31:47.478Z,99.99
2023-04-16T05:34:15.570Z,99.99
2023-04-16T05:36:43.733Z,99.99
2023-04-16T05:39:11.910Z,99.99
2023-04-16T05:41:39.871Z,99.99
2023-04-16T05:44:07.791Z,99.99
2023-04-16T05:46:35.853Z,99.99
2023-04-16T05:49:03.875Z,99.99
2023-04-16T05:51:32.342Z,99.99
2023-04-16T05:54:00.364Z,99.99
2023-04-16T05:56:28.294Z,99.99
2023-04-16T05:58:56.109Z,99.99
2023-04-16T06:01:26.252Z,99.99
2023-04-16T06:03:54.789Z,99.99
2023-04-16T06:06:22.888Z,99.99
2023-04-16T06:08:50.956Z,99.99
2023-04-16T06:11:18.888Z,99.99
2023-04-16T06:13:47.249Z,99.99
2023-04-16T06:16:15.882Z,99.99
2023-04-16T06:18:49.808Z,99.99
2023-04-16T06:21:17.950Z,99.99
2023-04-16T06:23:45.857Z,99.99
2023-04-16T06:26:13.873Z,99.99
2023-04-16T06:28:41.767Z,99.99
2023-04-16T06:31:09.819Z,99.99
2023-04-16T06:33:39.604Z,99.99
2023-04-16T06:36:07.964Z,99.99
2023-04-16T06:38:37.048Z,99.99
2023-04-16T06:41:06.007Z,99.99
2023-04-16T06:43:34.332Z,99.99
2023-04-16T06:46:02.360Z,99.99
2023-04-16T06:48:33.518Z,99.99
2023-04-16T06:51:04.368Z,99.99
2023-04-16T06:53:33.116Z,99.99
2023-04-16T06:56:03.767Z,99.99
2023-04-16T06:58:34.299Z,99.99
2023-04-16T07:01:10.476Z,99.99
2023-04-16T07:03:58.032Z,99.99
2023-04-16T07:06:28.322Z,99.99
2023-04-16T07:08:56.298Z,99.99
2023-04-16T07:11:27.762Z,99.99
2023-04-16T07:13:55.997Z,99.99
2023-04-16T07:16:30.084Z,99.99
2023-04-16T07:19:00.820Z,99.99
2023-04-16T07:21:30.742Z,99.99
2023-04-16T07:23:58.782Z,99.99
2023-04-16T07:26:26.742Z,99.99
2023-04-16T07:28:55.155Z,99.99
2023-04-16T07:31:23.238Z,99.99
2023-04-16T07:33:51.757Z,99.99
2023-04-16T07:36:19.922Z,99.99
2023-04-16T07:38:47.944Z,99.99
2023-04-16T07:41:16.087Z,99.81
2023-04-16T07:43:43.918Z,99.99
2023-04-16T07:46:11.859Z,99.99
2023-04-16T07:48:42.639Z,99.99
2023-04-16T07:51:10.942Z,99.91
2023-04-16T07:53:38.809Z,99.80
2023-04-16T07:56:07.533Z,99.61
2023-04-16T07:58:35.760Z,99.45
2023-04-16T08:01:03.813Z,99.31
2023-04-16T08:03:31.820Z,99.45
2023-04-16T08:05:59.991Z,99.31
2023-04-16T08:08:27.888Z,99.26
2023-04-16T08:10:56.180Z,99.16
2023-04-16T08:13:24.428Z,98.92
2023-04-16T08:15:52.441Z,98.69
2023-04-16T08:18:21.744Z,98.44
2023-04-16T08:20:50.833Z,98.18
2023-04-16T08:23:19.013Z,97.74
2023-04-16T08:25:47.796Z,97.43
2023-04-16T08:28:18.528Z,97.15
2023-04-16T08:30:50.408Z,96.87
2023-04-16T08:33:18.616Z,96.50
2023-04-16T08:35:49.560Z,95.91
2023-04-16T08:38:17.878Z,95.53
2023-04-16T08:40:51.719Z,95.22
2023-04-16T08:43:22.026Z,95.05
2023-04-16T08:45:52.689Z,94.61
2023-04-16T08:48:22.312Z,94.21
2023-04-16T08:50:55.610Z,93.56
2023-04-16T08:53:47.623Z,93.05
2023-04-16T08:56:18.835Z,92.11
2023-04-16T08:58:48.810Z,92.44
2023-04-16T09:01:18.968Z,92.24
2023-04-16T09:03:53.759Z,91.90
2023-04-16T09:06:22.470Z,92.16
2023-04-16T09:08:51.328Z,92.08
2023-04-16T09:11:22.017Z,91.07
2023-04-16T09:13:50.628Z,89.55
2023-04-16T09:16:21.599Z,89.60
2023-04-16T09:18:49.814Z,89.68
2023-04-16T09:21:24.212Z,89.61
2023-04-16T09:23:54.563Z,89.08
2023-04-16T09:26:24.140Z,88.75
2023-04-16T09:28:52.405Z,88.32
2023-04-16T09:31:22.553Z,88.28
2023-04-16T09:34:13.045Z,87.46
2023-04-16T09:36:41.433Z,86.76
2023-04-16T09:39:22.105Z,86.35
2023-04-16T09:41:54.929Z,86.90
2023-04-16T09:44:42.866Z,86.20
2023-04-16T09:47:13.693Z,85.80
2023-04-16T09:49:45.869Z,85.35
2023-04-16T09:52:22.653Z,84.94
2023-04-16T09:54:55.196Z,84.53
2023-04-16T10:03:21.558Z,83.57
2023-04-16T10:06:20.763Z,82.65
2023-04-16T10:08:56.054Z,82.37
2023-04-16T10:11:27.619Z,82.82
2023-04-16T10:14:12.865Z,83.40
2023-04-16T10:16:42.156Z,83.75
2023-04-16T10:19:16.048Z,83.16
2023-04-16T10:22:00.401Z,81.61
2023-04-16T10:24:34.687Z,81.53
2023-04-16T10:27:12.637Z,81.28
2023-04-16T10:29:47.412Z,80.86
2023-04-16T10:32:35.974Z,81.12
2023-04-16T10:35:57.940Z,81.25
2023-04-16T10:38:58.347Z,82.01
2023-04-16T10:41:30.412Z,82.85
2023-04-16T10:44:09.963Z,81.57
2023-04-16T10:46:44.214Z,81.92
2023-04-16T10:49:23.249Z,82.98
2023-04-16T10:51:58.795Z,81.70
2023-04-16T10:54:31.441Z,82.20
2023-04-16T10:59:55.405Z,81.89
2023-04-16T11:02:29.741Z,82.33
2023-04-16T11:04:59.069Z,81.76
2023-04-16T11:07:58.145Z,81.37
2023-04-16T11:10:51.178Z,80.62
2023-04-16T11:13:38.625Z,80.47
2023-04-16T11:16:07.691Z,80.95
2023-04-16T11:19:24.260Z,79.40
2023-04-16T11:22:00.676Z,80.09
2023-04-16T11:31:05.209Z,80.87
2023-04-16T11:33:39.975Z,80.33
2023-04-16T11:36:11.498Z,80.16
2023-04-16T11:38:54.218Z,79.77
2023-04-16T11:41:27.880Z,78.73
2023-04-16T11:44:02.254Z,79.33
2023-04-16T11:46:44.794Z,79.47
2023-04-16T11:49:37.446Z,79.58
2023-04-16T11:52:13.849Z,79.04
2023-04-16T11:54:56.396Z,78.52
2023-04-16T11:57:39.088Z,79.23
2023-04-16T12:03:09.279Z,78.54
2023-04-16T12:05:51.947Z,79.02
2023-04-16T12:08:40.146Z,78.52
2023-04-16T12:14:18.395Z,79.15
2023-04-16T12:16:50.587Z,79.20
2023-04-16T12:19:19.400Z,79.38
2023-04-16T12:22:05.608Z,79.32
2023-04-16T12:24:37.990Z,79.15
2023-04-16T12:27:08.066Z,79.32
2023-04-16T12:29:39.875Z,78.66
2023-04-16T12:32:25.069Z,79.55
2023-04-16T12:35:06.977Z,78.88
2023-04-16T12:37:45.861Z,78.45
2023-04-16T12:40:18.980Z,79.52
2023-04-16T12:43:04.733Z,78.76
2023-04-16T12:45:40.202Z,79.28
2023-04-16T12:48:09.928Z,80.36
2023-04-16T12:50:49.429Z,79.39
2023-04-16T12:53:24.998Z,79.61
2023-04-16T12:56:06.991Z,79.07
2023-04-16T12:58:38.915Z,79.42
2023-04-16T13:01:07.370Z,80.05
2023-04-16T13:03:38.820Z,80.30
2023-04-16T13:06:07.614Z,79.47
2023-04-16T13:08:37.435Z,79.92
2023-04-16T13:11:08.846Z,80.11
2023-04-16T13:13:37.320Z,79.89
2023-04-16T13:16:06.843Z,79.98
2023-04-16T13:18:36.484Z,79.88
2023-04-16T13:21:08.688Z,80.93
2023-04-16T13:23:39.412Z,80.82
2023-04-16T13:26:07.593Z,81.40
2023-04-16T13:28:35.950Z,81.26
2023-04-16T13:31:15.706Z,79.81
2023-04-16T13:33:50.988Z,80.66
2023-04-16T13:36:27.051Z,81.24
2023-04-16T13:39:01.552Z,81.05
2023-04-16T13:41:29.886Z,81.74
2023-04-16T13:44:00.350Z,82.33
2023-04-16T13:46:43.740Z,81.46
2023-04-16T13:49:12.380Z,82.47
2023-04-16T13:51:46.765Z,82.73
2023-04-16T13:54:17.409Z,82.58
2023-04-16T13:56:56.003Z,82.45
2023-04-16T13:59:24.573Z,81.92
2023-04-16T14:02:00.336Z,82.24
2023-04-16T14:04:28.655Z,81.53
2023-04-16T14:06:57.568Z,82.73
2023-04-16T14:09:25.745Z,82.71
2023-04-16T14:12:01.650Z,83.71
2023-04-16T14:14:53.193Z,83.71
2023-04-16T14:17:23.873Z,82.85
2023-04-16T14:20:00.596Z,83.64
2023-04-16T14:22:28.719Z,83.12
2023-04-16T14:24:56.676Z,82.74
2023-04-16T14:27:24.673Z,82.61
2023-04-16T14:29:52.642Z,81.86
2023-04-16T14:32:28.660Z,82.15
2023-04-16T14:34:59.628Z,81.88
2023-04-16T14:37:32.305Z,81.97
2023-04-16T14:40:03.282Z,81.59
2023-04-16T14:42:33.792Z,81.47
2023-04-16T14:45:06.730Z,81.86
2023-04-16T14:47:35.767Z,82.03
2023-04-16T14:50:06.653Z,82.84
2023-04-16T14:52:38.281Z,82.90
2023-04-16T14:55:17.414Z,82.76
2023-04-16T14:57:46.430Z,83.12
2023-04-16T15:00:18.840Z,82.63
2023-04-16T15:02:48.458Z,83.29
2023-04-16T15:05:16.831Z,82.84
2023-04-16T15:07:48.830Z,82.99
2023-04-16T15:10:20.197Z,82.40
2023-04-16T15:12:57.963Z,82.56
2023-04-16T15:15:26.238Z,82.03
2023-04-16T15:17:54.431Z,82.51
2023-04-16T15:20:22.515Z,83.24
2023-04-16T15:22:51.085Z,82.43
2023-04-16T15:25:29.164Z,82.54
2023-04-16T15:27:57.992Z,82.11
2023-04-16T15:30:26.789Z,82.71
2023-04-16T15:32:55.845Z,82.80
2023-04-16T15:35:24.626Z,82.75
2023-04-16T15:37:53.129Z,83.21
2023-04-16T15:40:25.707Z,83.38
2023-04-16T15:42:56.524Z,83.02
2023-04-16T15:45:26.775Z,83.58
2023-04-16T15:47:58.357Z,83.23
2023-04-16T15:50:28.954Z,83.23
2023-04-16T15:53:05.259Z,83.86
2023-04-16T15:56:19.474Z,83.54
2023-04-16T15:58:53.547Z,83.65
2023-04-16T16:01:28.369Z,84.34
2023-04-16T16:04:03.092Z,84.17
2023-04-16T16:06:38.022Z,84.13
2023-04-16T16:10:08.713Z,83.97
2023-04-16T16:12:40.767Z,84.32
2023-04-16T16:15:14.226Z,84.14
2023-04-16T16:17:48.140Z,84.33
2023-04-16T16:20:19.935Z,84.06
2023-04-16T16:22:56.203Z,84.96
2023-04-16T16:25:30.180Z,85.56
2023-04-16T16:28:06.168Z,85.65
2023-04-16T16:30:51.143Z,85.72
2023-04-16T16:33:19.484Z,85.40
2023-04-16T16:35:59.769Z,85.15
2023-04-16T16:38:54.599Z,85.17
2023-04-16T16:41:29.374Z,84.72
2023-04-16T16:44:00.865Z,84.89
2023-04-16T16:46:32.538Z,84.71
2023-04-16T16:49:01.094Z,85.46
2023-04-16T16:51:38.467Z,85.74
2023-04-16T16:54:25.807Z,85.84
2023-04-16T16:57:02.596Z,85.74
2023-04-16T16:59:32.786Z,85.81
2023-04-16T17:02:01.423Z,85.81
2023-04-16T17:04:33.331Z,85.82
2023-04-16T17:07:03.026Z,85.93
2023-04-16T17:09:35.746Z,85.81
2023-04-16T17:12:14.150Z,85.99
2023-04-16T17:14:44.677Z,85.96
2023-04-16T17:17:13.184Z,86.06
2023-04-16T17:19:44.612Z,86.48
2023-04-16T17:22:12.964Z,86.71
2023-04-16T17:24:41.364Z,86.47
2023-04-16T17:27:09.861Z,86.98
2023-04-16T17:29:40.731Z,86.90
2023-04-16T17:32:11.747Z,86.86
2023-04-16T17:34:40.055Z,86.84
2023-04-16T17:37:09.967Z,86.69
2023-04-16T17:39:38.509Z,86.61
2023-04-16T17:42:06.783Z,86.56
2023-04-16T17:44:36.330Z,86.76
2023-04-16T17:47:05.165Z,87.05
2023-04-16T17:49:42.782Z,87.15
2023-04-16T17:52:11.162Z,87.29
2023-04-16T17:54:39.651Z,87.66
2023-04-16T17:57:08.038Z,87.59
2023-04-16T17:59:39.492Z,88.31
2023-04-16T18:02:10.316Z,87.68
2023-04-16T18:04:46.889Z,87.83
2023-04-16T18:07:21.362Z,87.99
2023-04-16T18:09:49.951Z,88.41
2023-04-16T18:12:18.704Z,88.58
2023-04-16T18:14:46.831Z,88.62
2023-04-16T18:17:15.832Z,88.76
2023-04-16T18:19:48.113Z,88.97
2023-04-16T18:22:20.162Z,89.03
2023-04-16T18:24:58.053Z,89.28
2023-04-16T18:27:26.722Z,89.61
2023-04-16T18:29:55.371Z,89.65
2023-04-16T18:32:25.001Z,89.75
2023-04-16T18:34:53.847Z,89.73
2023-04-16T18:37:22.026Z,89.91
2023-04-16T18:39:52.822Z,89.98
2023-04-16T18:42:20.935Z,90.33
2023-04-16T18:44:54.042Z,90.60
2023-04-16T18:47:22.257Z,90.42
2023-04-16T18:49:50.536Z,90.65
2023-04-16T18:52:22.149Z,90.76
2023-04-16T18:54:50.184Z,90.89
2023-04-16T18:57:20.623Z,91.01
2023-04-16T18:59:49.037Z,91.10
2023-04-16T19:02:18.333Z,91.13
2023-04-16T19:04:51.830Z,91.23
2023-04-16T19:07:21.480Z,91.20
2023-04-16T19:09:52.857Z,91.34
2023-04-16T19:12:21.709Z,91.19
2023-04-16T19:14:49.936Z,91.34
2023-04-16T19:17:24.627Z,91.41
2023-04-16T19:19:56.812Z,91.67
2023-04-16T19:22:25.319Z,91.90
2023-04-16T19:25:01.732Z,91.55
2023-04-16T19:27:35.750Z,91.72
2023-04-16T19:30:05.623Z,91.61
2023-04-16T19:32:35.623Z,91.70
2023-04-16T19:35:04.948Z,91.82
2023-04-16T19:37:33.334Z,91.97
2023-04-16T19:40:02.311Z,91.83
2023-04-16T19:42:31.374Z,92.07
2023-04-16T19:45:01.671Z,92.16
2023-04-16T19:47:31.124Z,92.19
2023-04-16T19:50:01.067Z,92.43
2023-04-16T19:52:32.234Z,92.26
2023-04-16T19:55:03.370Z,92.61
2023-04-16T19:57:31.626Z,93.02
2023-04-16T19:59:59.672Z,92.88
2023-04-16T20:02:30.976Z,93.03
2023-04-16T20:05:02.328Z,93.11
2023-04-16T20:07:32.916Z,93.26
2023-04-16T20:10:02.605Z,93.60
2023-04-16T20:12:30.766Z,93.93
2023-04-16T20:14:58.738Z,93.99
2023-04-16T20:17:26.951Z,94.07
2023-04-16T20:20:00.888Z,94.10
2023-04-16T20:22:28.898Z,94.21
2023-04-16T20:24:56.830Z,94.47
2023-04-16T20:27:24.756Z,94.49
2023-04-16T20:29:56.502Z,94.59
2023-04-16T20:32:28.163Z,94.11
2023-04-16T20:34:56.666Z,94.06
2023-04-16T20:37:24.767Z,93.87
2023-04-16T20:39:54.177Z,94.14
2023-04-16T20:42:22.795Z,94.32
2023-04-16T20:44:55.786Z,94.58
2023-04-16T20:47:23.796Z,94.53
2023-04-16T20:49:52.808Z,94.59
2023-04-16T20:52:21.532Z,94.53
2023-04-16T20:54:52.045Z,94.66
2023-04-16T20:57:20.326Z,94.56
2023-04-16T20:59:49.169Z,94.49
2023-04-16T21:02:17.439Z,94.50
2023-04-16T21:04:45.798Z,94.57
2023-04-16T21:07:13.970Z,94.80
2023-04-16T21:09:44.331Z,94.67
2023-04-16T21:12:12.463Z,94.58
2023-04-16T21:14:40.846Z,95.04
2023-04-16T21:17:08.750Z,95.51
2023-04-16T21:19:36.680Z,95.53
2023-04-16T21:22:04.506Z,95.76
2023-04-16T21:24:32.921Z,95.73
2023-04-16T21:27:01.772Z,95.65
2023-04-16T21:29:30.344Z,95.59
2023-04-16T21:31:58.314Z,95.88
2023-04-16T21:34:26.441Z,95.86
2023-04-16T21:36:54.764Z,95.74
2023-04-16T21:39:24.568Z,96.00
2023-04-16T21:41:52.448Z,96.40
2023-04-16T21:44:21.224Z,96.62
2023-04-16T21:46:50.033Z,96.71
2023-04-16T21:49:18.050Z,96.79
2023-04-16T21:51:46.219Z,96.58
2023-04-16T21:54:17.775Z,96.59
2023-04-16T21:56:46.242Z,96.46
2023-04-16T21:59:14.072Z,96.65
2023-04-16T22:01:42.312Z,96.73
2023-04-16T22:04:12.166Z,96.69
2023-04-16T22:06:40.599Z,96.80
2023-04-16T22:09:11.894Z,96.81
2023-04-16T22:11:40.855Z,96.59
2023-04-16T22:14:08.902Z,96.64
2023-04-16T22:16:49.905Z,96.79
2023-04-16T22:19:21.636Z,96.95
2023-04-16T22:21:50.195Z,97.17
2023-04-16T22:24:18.172Z,97.33
2023-04-16T22:26:47.921Z,97.60
2023-04-16T22:29:16.216Z,97.71
2023-04-16T22:31:44.298Z,97.90
2023-04-16T22:34:12.405Z,97.95
2023-04-16T22:36:41.218Z,98.00
2023-04-16T22:39:11.754Z,98.04
2023-04-16T22:41:39.909Z,97.95
2023-04-16T22:44:08.177Z,98.12
2023-04-16T22:46:36.516Z,97.94
2023-04-16T22:49:04.663Z,97.95
2023-04-16T22:51:32.606Z,97.84
2023-04-16T22:54:00.869Z,97.87
2023-04-16T22:56:30.383Z,97.94
2023-04-16T22:58:58.410Z,97.82
2023-04-16T23:01:26.482Z,97.68
2023-04-16T23:03:54.463Z,97.58
2023-04-16T23:06:23.127Z,97.62
2023-04-16T23:08:51.479Z,97.82
2023-04-16T23:11:19.566Z,97.99
2023-04-16T23:13:47.579Z,98.20
2023-04-16T23:16:15.574Z,98.25
2023-04-16T23:18:43.759Z,98.32
2023-04-16T23:21:11.756Z,98.40
2023-04-16T23:23:41.061Z,98.49
2023-04-16T23:26:08.895Z,98.34
2023-04-16T23:28:37.151Z,97.97
2023-04-16T23:31:07.308Z,97.61
2023-04-16T23:33:35.689Z,97.27
2023-04-16T23:36:03.640Z,96.93
2023-04-16T23:38:32.734Z,96.79
2023-04-16T23:41:00.936Z,96.31
2023-04-16T23:43:29.215Z,96.16
2023-04-16T23:45:57.355Z,95.95
2023-04-16T23:48:25.325Z,95.89
2023-04-16T23:50:53.291Z,96.11
2023-04-16T23:53:21.491Z,96.17
2023-04-16T23:55:49.462Z,96.07
2023-04-16T23:58:17.529Z,95.84
